createdAt,value
2022-09-12T00:01:06.983Z,96268.75
2022-09-12T00:03:33.413Z,96269.59
2022-09-12T00:06:08.018Z,96262.50
2022-09-12T00:08:34.595Z,96268.03
2022-09-12T00:11:01.644Z,96266.16
2022-09-12T00:13:28.570Z,96267.53
2022-09-12T00:16:02.348Z,96270.75
2022-09-12T00:18:29.129Z,96272.78
2022-09-12T00:20:57.774Z,96270.03
2022-09-12T00:23:24.587Z,96268.28
2022-09-12T00:26:01.280Z,96270.94
2022-09-12T00:28:28.086Z,96273.91
2022-09-12T00:31:02.133Z,96268.91
2022-09-12T00:33:28.716Z,96267.63
2022-09-12T00:35:56.039Z,96266.28
2022-09-12T00:38:22.828Z,96264.53
2022-09-12T00:40:49.571Z,96255.97
2022-09-12T00:43:16.276Z,96260.03
2022-09-12T00:45:42.831Z,96257.25
2022-09-12T00:48:10.064Z,96255.06
2022-09-12T00:50:36.973Z,96254.75
2022-09-12T00:53:03.541Z,96250.09
2022-09-12T00:55:30.460Z,96248.16
2022-09-12T00:57:58.142Z,96247.16
2022-09-12T01:00:24.785Z,96249.59
2022-09-12T01:02:54.449Z,96241.22
2022-09-12T01:05:28.546Z,96242.16
2022-09-12T01:07:55.326Z,96237.97
2022-09-12T01:10:22.683Z,96240.72
2022-09-12T01:12:49.262Z,96235.63
2022-09-12T01:15:15.951Z,96230.81
2022-09-12T01:17:42.495Z,96232.44
2022-09-12T01:20:09.298Z,96234.22
2022-09-12T01:22:36.279Z,96239.59
2022-09-12T01:25:02.702Z,96229.78
2022-09-12T01:27:29.972Z,96241.06
2022-09-12T01:29:56.762Z,96229.47
2022-09-12T01:32:24.275Z,96226.03
2022-09-12T01:34:51.316Z,96228.66
2022-09-12T01:37:17.777Z,96233.66
2022-09-12T01:39:46.730Z,96226.84
2022-09-12T01:42:13.933Z,96229.50
2022-09-12T01:44:40.729Z,96222.25
2022-09-12T01:47:07.568Z,96224.13
2022-09-12T01:49:38.951Z,96222.41
2022-09-12T01:52:05.401Z,96219.25
2022-09-12T01:54:34.742Z,96218.56
2022-09-12T01:57:01.381Z,96216.38
2022-09-12T01:59:29.045Z,96213.66
2022-09-12T02:01:56.624Z,96217.59
2022-09-12T02:04:23.799Z,96215.63
2022-09-12T02:06:51.048Z,96217.91
2022-09-12T02:09:17.812Z,96216.00
2022-09-12T02:11:45.643Z,96216.38
2022-09-12T02:14:12.418Z,96218.84
2022-09-12T02:16:39.932Z,96219.84
2022-09-12T02:19:08.726Z,96224.13
2022-09-12T02:21:36.056Z,96224.19
2022-09-12T02:24:02.887Z,96217.00
2022-09-12T02:26:31.801Z,96213.22
2022-09-12T02:28:59.135Z,96210.66
2022-09-12T02:34:06.048Z,96213.56
2022-09-12T02:36:33.682Z,96209.91
2022-09-12T02:39:00.496Z,96209.66
2022-09-12T02:41:27.981Z,96201.56
2022-09-12T02:43:54.659Z,96202.56
2022-09-12T02:46:21.168Z,96209.03
2022-09-12T02:48:50.713Z,96205.44
2022-09-12T02:51:21.498Z,96207.03
2022-09-12T02:53:51.011Z,96207.25
2022-09-12T02:56:18.021Z,96212.97
2022-09-12T02:58:45.408Z,96211.59
2022-09-12T03:01:12.316Z,96206.63
2022-09-12T03:03:43.355Z,96215.88
2022-09-12T03:06:10.461Z,96208.09
2022-09-12T03:08:36.897Z,96211.69
2022-09-12T03:11:03.354Z,96211.44
2022-09-12T03:13:30.392Z,96211.59
2022-09-12T03:15:57.236Z,96204.72
2022-09-12T03:18:25.069Z,96212.00
2022-09-12T03:20:52.715Z,96206.47
2022-09-12T03:23:19.727Z,96202.78
2022-09-12T03:25:47.115Z,96200.88
2022-09-12T03:28:13.969Z,96202.44
2022-09-12T03:30:40.960Z,96200.53
2022-09-12T03:33:07.976Z,96202.25
2022-09-12T03:35:38.260Z,96202.44
2022-09-12T03:38:04.739Z,96201.16
2022-09-12T03:40:32.231Z,96202.91
2022-09-12T03:42:58.862Z,96202.59
2022-09-12T03:45:26.162Z,96207.91
2022-09-12T03:47:53.042Z,96199.38
2022-09-12T03:50:19.666Z,96205.34
2022-09-12T03:52:53.823Z,96201.56
2022-09-12T03:55:20.462Z,96203.56
2022-09-12T03:57:47.274Z,96205.66
2022-09-12T04:00:19.546Z,96198.94
2022-09-12T04:02:46.656Z,96205.19
2022-09-12T04:05:13.452Z,96201.53
2022-09-12T04:07:40.419Z,96196.41
2022-09-12T04:10:09.743Z,96203.66
2022-09-12T04:12:36.637Z,96200.88
2022-09-12T04:15:10.875Z,96203.56
2022-09-12T04:17:44.976Z,96204.47
2022-09-12T04:20:11.637Z,96198.59
2022-09-12T04:22:38.451Z,96202.66
2022-09-12T04:25:05.275Z,96202.91
2022-09-12T04:27:31.750Z,96201.78
2022-09-12T04:29:58.838Z,96205.56
2022-09-12T04:32:25.889Z,96206.50
2022-09-12T04:34:53.974Z,96210.78
2022-09-12T04:37:22.984Z,96215.19
2022-09-12T04:39:50.945Z,96211.78
2022-09-12T04:42:17.720Z,96206.56
2022-09-12T04:44:44.346Z,96209.16
2022-09-12T04:47:11.249Z,96208.69
2022-09-12T04:52:41.973Z,96216.06
2022-09-12T04:55:08.545Z,96219.94
2022-09-12T04:57:40.019Z,96214.59
2022-09-12T05:00:07.301Z,96216.38
2022-09-12T05:02:34.613Z,96217.03
2022-09-12T05:05:02.039Z,96215.41
2022-09-12T05:07:35.875Z,96216.28
2022-09-12T05:10:07.133Z,96210.38
2022-09-12T05:12:35.736Z,96209.53
2022-09-12T05:15:02.586Z,96208.44
2022-09-12T05:17:29.603Z,96222.63
2022-09-12T05:19:56.482Z,96210.56
2022-09-12T05:22:30.548Z,96216.44
2022-09-12T05:24:57.437Z,96210.41
2022-09-12T05:27:24.844Z,96212.34
2022-09-12T05:29:51.550Z,96214.53
2022-09-12T05:32:18.121Z,96219.81
2022-09-12T05:34:45.957Z,96218.19
2022-09-12T05:37:16.707Z,96223.97
2022-09-12T05:39:45.786Z,96223.84
2022-09-12T05:42:12.771Z,96232.38
2022-09-12T05:44:39.442Z,96239.19
2022-09-12T05:47:05.959Z,96241.50
2022-09-12T05:49:34.277Z,96231.84
2022-09-12T05:52:01.100Z,96235.19
2022-09-12T05:54:31.698Z,96231.97
2022-09-12T05:57:00.824Z,96226.09
2022-09-12T05:59:27.551Z,96233.66
2022-09-12T06:01:55.556Z,96227.50
2022-09-12T06:04:22.298Z,96235.66
2022-09-12T06:06:49.392Z,96244.78
2022-09-12T06:09:16.348Z,96235.69
2022-09-12T06:11:43.742Z,96239.31
2022-09-12T06:14:10.739Z,96242.88
2022-09-12T06:16:38.546Z,96238.47
2022-09-12T06:19:05.772Z,96247.56
2022-09-12T06:21:33.221Z,96244.22
2022-09-12T06:23:59.816Z,96243.16
2022-09-12T06:26:28.726Z,96244.31
2022-09-12T08:18:28.703Z,96246.56
2022-09-12T08:20:56.763Z,96247.56
2022-09-12T08:23:31.371Z,96251.75
2022-09-12T08:25:58.224Z,96261.50
2022-09-12T08:28:26.896Z,96259.28
2022-09-12T08:30:56.083Z,96257.09
2022-09-12T08:39:33.996Z,96259.88
2022-09-12T08:45:00.468Z,96263.41
2022-09-12T08:47:28.014Z,96253.97
2022-09-12T08:49:55.078Z,96256.47
2022-09-12T08:52:22.313Z,96253.47
2022-09-12T08:54:49.355Z,96266.25
2022-09-12T08:57:16.198Z,96266.94
2022-09-12T08:59:42.841Z,96270.19
2022-09-12T09:02:09.799Z,96269.88
2022-09-12T09:04:40.098Z,96267.50
2022-09-12T09:07:09.657Z,96273.59
2022-09-12T09:09:39.229Z,96266.81
2022-09-12T09:15:15.554Z,96268.00
2022-09-12T09:17:46.524Z,96270.44
2022-09-12T09:20:14.947Z,96259.22
2022-09-12T09:22:41.640Z,96259.00
2022-09-12T09:25:08.795Z,96261.41
2022-09-12T09:27:41.031Z,96251.91
2022-09-12T09:32:56.965Z,96243.22
2022-09-12T09:35:24.432Z,96243.22
2022-09-12T09:37:54.545Z,96244.72
2022-09-12T09:40:25.342Z,96250.13
2022-09-12T09:42:52.057Z,96245.69
2022-09-12T09:45:21.625Z,96253.47
2022-09-12T09:47:48.705Z,96257.47
2022-09-12T09:50:15.336Z,96255.53
2022-09-12T09:52:41.925Z,96248.34
2022-09-12T09:55:08.742Z,96251.91
2022-09-12T09:57:36.067Z,96244.16
2022-09-12T10:00:02.776Z,96245.19
2022-09-12T10:02:33.874Z,96240.75
2022-09-12T10:05:00.744Z,96243.75
2022-09-12T10:07:28.268Z,96237.38
2022-09-12T10:09:57.308Z,96236.13
2022-09-12T10:12:23.966Z,96240.34
2022-09-12T10:14:51.434Z,96234.72
2022-09-12T10:17:18.342Z,96229.31
2022-09-12T10:19:55.963Z,96227.66
2022-09-12T10:22:31.600Z,96219.56
2022-09-12T10:25:00.117Z,96213.50
2022-09-12T10:27:30.775Z,96216.59
2022-09-12T10:29:58.069Z,96212.28
2022-09-12T10:32:29.985Z,96218.38
2022-09-12T10:34:57.809Z,96215.22
2022-09-12T10:37:24.715Z,96220.81
2022-09-12T10:39:58.856Z,96211.78
2022-09-12T10:42:25.685Z,96214.94
2022-09-12T10:44:54.866Z,96214.47
2022-09-12T10:47:21.697Z,96209.06
2022-09-12T10:49:50.703Z,96210.81
2022-09-12T10:52:24.822Z,96212.78
2022-09-12T10:55:01.540Z,96216.13
2022-09-12T10:57:28.883Z,96206.41
2022-09-12T10:59:56.136Z,96203.72
2022-09-12T11:02:22.974Z,96201.28
2022-09-12T11:04:49.637Z,96201.00
2022-09-12T11:07:16.943Z,96204.13
2022-09-12T11:09:45.576Z,96203.31
2022-09-12T11:12:21.363Z,96200.59
2022-09-12T11:14:48.312Z,96202.09
2022-09-12T11:17:18.785Z,96204.06
2022-09-12T11:19:47.040Z,96194.88
2022-09-12T11:22:14.221Z,96195.16
2022-09-12T11:24:42.950Z,96189.72
2022-09-12T11:27:13.530Z,96190.91
2022-09-12T11:29:41.000Z,96188.22
2022-09-12T11:32:13.208Z,96188.00
2022-09-12T11:34:40.725Z,96179.38
2022-09-12T11:37:11.432Z,96179.50
2022-09-12T11:39:41.260Z,96180.41
2022-09-12T11:42:08.286Z,96183.47
2022-09-12T11:44:40.030Z,96170.00
2022-09-12T11:47:09.443Z,96169.44
2022-09-12T11:52:17.155Z,96161.47
2022-09-12T11:54:44.847Z,96163.75
2022-09-12T11:57:11.851Z,96163.84
2022-09-12T11:59:38.756Z,96167.09
2022-09-12T12:02:05.509Z,96164.22
2022-09-12T12:04:34.267Z,96164.06
2022-09-12T12:07:01.070Z,96161.84
2022-09-12T12:09:28.593Z,96161.28
2022-09-12T12:11:55.331Z,96152.59
2022-09-12T12:14:25.749Z,96156.28
2022-09-12T12:16:54.506Z,96156.16
2022-09-12T12:19:22.575Z,96150.28
2022-09-12T12:21:51.707Z,96149.56
2022-09-12T12:24:20.679Z,96145.13
2022-09-12T12:26:47.849Z,96148.03
2022-09-12T12:29:15.537Z,96139.44
2022-09-12T12:31:42.389Z,96140.56
2022-09-12T12:34:09.760Z,96136.44
2022-09-12T12:36:40.229Z,96132.38
2022-09-12T12:39:11.899Z,96132.97
2022-09-12T12:41:38.573Z,96124.75
2022-09-12T12:44:05.846Z,96126.13
2022-09-12T12:46:33.381Z,96123.31
2022-09-12T12:49:00.354Z,96121.75
2022-09-12T12:51:35.386Z,96110.69
2022-09-12T12:54:03.855Z,96109.66
2022-09-12T12:56:32.016Z,96116.44
2022-09-12T12:58:59.412Z,96116.91
2022-09-12T13:01:26.249Z,96119.16
2022-09-12T13:03:53.117Z,96120.19
2022-09-12T13:06:20.432Z,96113.63
2022-09-12T13:08:54.059Z,96111.81
2022-09-12T13:11:21.522Z,96112.59
2022-09-12T13:13:50.693Z,96108.75
2022-09-12T13:16:17.292Z,96105.78
2022-09-12T13:18:47.491Z,96098.34
2022-09-12T13:21:14.474Z,96100.88
2022-09-12T13:23:41.792Z,96090.19
2022-09-12T13:26:11.326Z,96084.69
2022-09-12T13:28:37.952Z,96084.53
2022-09-12T13:31:05.538Z,96085.47
2022-09-12T13:33:32.972Z,96079.25
2022-09-12T13:35:59.573Z,96079.22
2022-09-12T13:38:31.596Z,96073.97
2022-09-12T13:41:00.261Z,96081.34
2022-09-12T13:43:27.315Z,96075.63
2022-09-12T13:45:54.303Z,96076.59
2022-09-12T13:48:21.916Z,96067.75
2022-09-12T13:50:49.229Z,96068.56
2022-09-12T13:53:17.953Z,96055.50
2022-09-12T13:55:54.350Z,96051.56
2022-09-12T13:58:20.993Z,96049.09
2022-09-12T14:00:48.345Z,96042.97
2022-09-12T14:03:17.221Z,96042.66
2022-09-12T14:08:14.561Z,96040.28
2022-09-12T14:10:49.295Z,96034.34
2022-09-12T14:13:17.353Z,96034.66
2022-09-12T14:15:45.642Z,96026.97
2022-09-12T14:18:12.621Z,96026.66
2022-09-12T14:20:43.430Z,96020.47
2022-09-12T14:23:10.418Z,96023.47
2022-09-12T14:28:23.727Z,96029.38
2022-09-12T14:30:50.815Z,96015.47
2022-09-12T14:33:19.968Z,96018.31
2022-09-12T14:35:49.052Z,96019.13
2022-09-12T14:38:15.674Z,96013.06
2022-09-12T14:40:42.671Z,96017.13
2022-09-12T14:43:10.838Z,96013.88
2022-09-12T14:45:39.624Z,96008.56
2022-09-12T14:50:47.176Z,96007.31
2022-09-12T14:53:14.073Z,96006.81
2022-09-12T14:55:40.730Z,96005.44
2022-09-12T14:58:11.932Z,96002.66
2022-09-12T15:00:38.937Z,95999.69
2022-09-12T15:03:07.502Z,95995.91
2022-09-12T15:05:37.982Z,96007.00
2022-09-12T15:10:47.925Z,96006.72
2022-09-12T15:13:15.470Z,96004.63
2022-09-12T15:18:26.952Z,96003.59
2022-09-12T15:20:54.693Z,96005.94
2022-09-12T15:23:23.845Z,95995.41
2022-09-12T15:25:51.404Z,95996.97
2022-09-12T15:28:20.187Z,95998.50
2022-09-12T15:30:46.756Z,95997.38
2022-09-12T15:33:13.777Z,96006.78
2022-09-12T15:35:42.215Z,96005.66
2022-09-12T15:38:09.086Z,96001.78
2022-09-12T15:40:37.684Z,95994.22
2022-09-12T15:43:04.506Z,95994.28
2022-09-12T15:45:31.557Z,95993.75
2022-09-12T15:48:01.905Z,95979.28
2022-09-12T15:50:32.228Z,95978.53
2022-09-12T15:53:02.294Z,95978.97
2022-09-12T15:55:28.963Z,95978.88
2022-09-12T15:57:55.774Z,95972.72
2022-09-12T16:00:26.652Z,95979.56
2022-09-12T16:02:53.658Z,95977.53
2022-09-12T16:05:20.982Z,95979.41
2022-09-12T16:07:47.731Z,95983.06
2022-09-12T16:10:14.387Z,95977.25
2022-09-12T16:12:45.286Z,95979.41
2022-09-12T16:15:13.672Z,95973.28
2022-09-12T16:17:47.649Z,95967.31
2022-09-12T16:20:16.845Z,95967.06
2022-09-12T16:22:43.612Z,95964.91
2022-09-12T16:25:10.781Z,95962.78
2022-09-12T16:27:39.048Z,95960.53
2022-09-12T16:30:06.618Z,95958.72
2022-09-12T16:32:34.066Z,95954.56
2022-09-12T16:35:01.500Z,95953.13
2022-09-12T16:37:30.433Z,95952.97
2022-09-12T16:39:57.103Z,95949.56
2022-09-12T16:42:30.526Z,95950.19
2022-09-12T16:44:57.942Z,95946.50
2022-09-12T16:47:25.588Z,95939.44
2022-09-12T16:49:53.872Z,95941.56
2022-09-12T16:52:21.399Z,95941.03
2022-09-12T16:57:53.273Z,95934.28
2022-09-12T17:00:20.128Z,95938.81
2022-09-12T17:02:49.598Z,95936.66
2022-09-12T17:05:16.728Z,95934.84
2022-09-12T17:07:43.514Z,95933.16
2022-09-12T17:10:23.222Z,95937.38
2022-09-12T17:12:58.991Z,95924.59
2022-09-12T17:15:27.301Z,95924.53
2022-09-12T17:20:38.076Z,95932.22
2022-09-12T17:23:09.524Z,95933.50
2022-09-12T17:25:38.136Z,95933.09
2022-09-12T17:28:14.274Z,95935.06
2022-09-12T17:30:50.925Z,95930.94
2022-09-12T17:33:27.183Z,95928.72
2022-09-12T17:35:55.973Z,95926.13
2022-09-12T17:38:25.236Z,95926.97
2022-09-12T17:43:21.662Z,95943.75
2022-09-12T17:45:48.337Z,95936.88
2022-09-12T17:48:15.763Z,95941.13
2022-09-12T17:50:42.375Z,95939.81
2022-09-12T17:53:17.433Z,95940.44
2022-09-12T17:55:45.985Z,95938.41
2022-09-12T17:58:12.957Z,95936.78
2022-09-12T18:00:40.258Z,95940.31
2022-09-12T18:03:12.167Z,95931.94
2022-09-12T18:05:42.563Z,95937.38
2022-09-12T18:08:10.194Z,95928.47
2022-09-12T18:10:40.362Z,95931.69
2022-09-12T18:13:09.501Z,95935.31
2022-09-12T18:15:36.757Z,95935.56
2022-09-12T18:18:03.699Z,95934.50
2022-09-12T18:23:18.119Z,95946.81
2022-09-12T18:25:47.201Z,95955.72
2022-09-12T18:28:13.998Z,95952.34
2022-09-12T18:30:40.524Z,95964.53
2022-09-12T18:33:06.956Z,95955.91
2022-09-12T18:35:33.482Z,95957.47
2022-09-12T18:38:00.117Z,95957.69
2022-09-12T18:40:26.796Z,95956.84
2022-09-12T18:42:53.935Z,95962.38
2022-09-12T18:45:20.691Z,95965.72
2022-09-12T18:47:48.175Z,95967.91
2022-09-12T18:50:15.178Z,95974.59
2022-09-12T18:52:41.720Z,95973.00
2022-09-12T18:55:08.550Z,95977.97
2022-09-12T18:57:35.353Z,95991.03
2022-09-12T19:00:07.258Z,95978.97
2022-09-12T19:02:35.968Z,95981.88
2022-09-12T19:05:10.739Z,95986.25
2022-09-12T19:07:38.093Z,95985.44
2022-09-12T19:10:04.969Z,95988.66
2022-09-12T19:12:31.803Z,96001.16
2022-09-12T19:14:58.608Z,95992.63
2022-09-12T19:17:28.223Z,95988.34
2022-09-12T19:19:57.271Z,95979.19
2022-09-12T19:22:31.540Z,95985.34
2022-09-12T19:24:58.694Z,95988.34
2022-09-12T19:27:25.449Z,95988.88
2022-09-12T19:29:52.165Z,95987.38
2022-09-12T19:32:19.710Z,95996.09
2022-09-12T19:34:46.975Z,95991.66
2022-09-12T19:37:13.388Z,95997.09
2022-09-12T19:39:40.677Z,96002.38
2022-09-12T19:42:14.470Z,95995.03
2022-09-12T19:44:40.992Z,95987.00
2022-09-12T19:47:08.211Z,95989.69
2022-09-12T19:49:34.695Z,95991.44
2022-09-12T19:52:01.672Z,95989.34
2022-09-12T19:54:28.101Z,95988.03
2022-09-12T19:56:57.101Z,95993.72
2022-09-12T19:59:23.820Z,95984.84
2022-09-12T20:01:50.581Z,95992.09
2022-09-12T20:04:17.158Z,95991.59
2022-09-12T20:06:43.674Z,95997.31
2022-09-12T20:09:10.398Z,95996.66
2022-09-12T20:11:37.015Z,96006.09
2022-09-12T20:14:03.526Z,96000.72
2022-09-12T20:16:30.337Z,96000.19
2022-09-12T20:18:57.041Z,96004.91
2022-09-12T20:21:23.552Z,95997.66
2022-09-12T20:23:50.085Z,96013.06
2022-09-12T20:26:16.586Z,96009.03
2022-09-12T20:28:43.353Z,96011.34
2022-09-12T20:31:12.002Z,96009.22
2022-09-12T20:33:38.734Z,96001.81
2022-09-12T20:36:05.508Z,96003.16
2022-09-12T20:38:32.770Z,96004.28
2022-09-12T20:40:59.292Z,95992.94
2022-09-12T20:43:26.089Z,95986.75
2022-09-12T20:45:52.587Z,95982.59
2022-09-12T20:48:19.009Z,95981.41
2022-09-12T20:50:45.666Z,95984.97
2022-09-12T21:05:54.526Z,95983.13
2022-09-12T21:08:21.737Z,95996.50
2022-09-12T21:10:50.488Z,95990.84
2022-09-12T21:13:19.548Z,95987.34
2022-09-12T21:15:48.393Z,95988.44
2022-09-12T21:18:16.914Z,95992.19
2022-09-12T21:20:44.364Z,95995.94
2022-09-12T21:23:12.153Z,95998.50
2022-09-12T21:25:52.232Z,95997.22
2022-09-12T21:28:19.838Z,95997.78
2022-09-12T21:30:47.282Z,95992.00
2022-09-12T21:33:16.542Z,96000.06
2022-09-12T21:35:43.156Z,95989.88
2022-09-12T21:38:10.569Z,95985.97
2022-09-12T21:40:39.087Z,95982.06
2022-09-12T21:43:12.319Z,95988.41
2022-09-12T21:45:47.142Z,95987.19
2022-09-12T21:48:15.397Z,95993.81
2022-09-12T21:50:42.295Z,95988.69
2022-09-12T21:53:20.100Z,95986.75
2022-09-12T21:55:47.043Z,95996.97
2022-09-12T21:58:14.699Z,95992.09
2022-09-12T22:00:49.192Z,95993.56
2022-09-12T22:03:16.381Z,95996.50
2022-09-12T22:05:46.941Z,95995.03
2022-09-12T22:08:15.515Z,96003.31
2022-09-12T22:10:42.260Z,96001.31
2022-09-12T22:13:09.154Z,96007.91
2022-09-12T22:15:41.351Z,95998.19
2022-09-12T22:18:09.917Z,95996.53
2022-09-12T22:20:40.427Z,96001.13
2022-09-12T22:23:08.912Z,95993.31
2022-09-12T22:28:16.161Z,95984.28
2022-09-12T22:30:45.217Z,95981.16
2022-09-12T22:33:13.701Z,95976.78
2022-09-12T22:35:40.497Z,95978.25
2022-09-12T22:38:07.901Z,95975.09
2022-09-12T22:40:34.767Z,95980.19
2022-09-12T22:43:02.313Z,95977.25
2022-09-12T22:45:31.594Z,95975.75
2022-09-12T22:48:00.740Z,95968.81
2022-09-12T22:53:00.570Z,95970.63
2022-09-12T22:55:35.871Z,95970.66
2022-09-12T22:58:02.919Z,95980.66
2022-09-12T23:00:31.957Z,95966.75
2022-09-12T23:02:58.964Z,95976.47
2022-09-12T23:05:27.450Z,95973.81
2022-09-12T23:07:54.413Z,95971.88
2022-09-12T23:10:21.215Z,95967.25
2022-09-12T23:12:52.609Z,95968.19
2022-09-12T23:15:20.958Z,95955.94
2022-09-12T23:17:48.345Z,95965.00
2022-09-12T23:20:15.966Z,95964.53
2022-09-12T23:22:42.848Z,95976.78
2022-09-12T23:25:09.662Z,95974.28
2022-09-12T23:27:37.015Z,95981.25
2022-09-12T23:30:07.571Z,95987.22
2022-09-12T23:32:35.307Z,95987.41
2022-09-12T23:35:09.422Z,95988.97
2022-09-12T23:37:36.126Z,95988.88
2022-09-12T23:40:03.301Z,95994.19
2022-09-12T23:42:30.676Z,96006.03
2022-09-12T23:44:57.411Z,95999.56
2022-09-12T23:47:24.495Z,96002.34
2022-09-12T23:49:52.922Z,96010.47
2022-09-12T23:52:20.065Z,96014.28
2022-09-12T23:54:47.543Z,96009.16
2022-09-12T23:57:18.825Z,96001.94
2022-09-12T23:59:51.516Z,96004.69
